Вираж

Карта отелей и гостиниц, располагающихся рядом с аэропортом Вираж :



Вираж
Белгород
Белгородская область 50° 38' 50.028" N, 36° 35' 35.124" E

Вираж
Белгород
Белгородская область 50° 38' 50.028" N, 36° 35' 35.124" E
Код аэродрома ИКАО: 
HEL3
Код аэродрома RU: 
ХЕЛ3
Координаты: 
N50.64723° E036.59309°
Превышение над уровнем моря : 
218
Основная полоса: 
Курс магнитный: 
Длина основной ВПП: 
Ширина основной ВПП: 
Покрытие основной ВПП: 
Твёрдое
Тип: 
Вертодром
Освещение ВПП: 
Нет
Класс аэродрома: 
Статус: 
Действующий
Принадлежность: 
АОН
Сайт: 
http://suncopter.ru/about_company/nashi_filialy/
E-mail аэродрома: 
club_belgorod@suncopter.ru
Страна: 
Россия
Регион: 
Белгородская область
Город: 
Белгород
Дополнительная информация: 
Оператор: Белгородский филиал НП "Вертолетный клуб «Солнечный» (г. Воронеж).

Найти трансфер

С помощью этой формы Вы можете найти трансфер из аэропорта Вираж в город, аэропорт или вокзал:

Карта места

Javascript is required to view this map.

Погода в аэропортах:

Авиационная погода в Ульяновске

Регион: 
Погода METAR: 
UWLW 042300Z 17003MPS 0800 0250N R20/0800U FG VV003 12/12 Q1014 R20/290250 NOSIG RMK QFE755
Время наблюдения: 
2020-06-04T23:00:00Z
Температура C: 
12.0
Точка росы: 
12.0
Направление ветра: 
170
Скорость ветра: 
6
Метеорологическая видимость: 
0.5
Явления погоды: 
FG
Условия полета: 
LIFR

Авиационная погода в Йоэнсуу

Регион: 
Погода METAR: 
EFJO 042250Z AUTO 09008KT 050V120 6000 -SHRA OVC005 12/11 Q1001
Время наблюдения: 
2020-06-04T22:50:00Z
Температура C: 
12.0
Точка росы: 
11.0
Направление ветра: 
90
Скорость ветра: 
8
Метеорологическая видимость: 
3.73
Явления погоды: 
-SHRA
Условия полета: 
IFR

Авиационная погода в Савонлинна

Регион: 
Погода METAR: 
EFSA 042250Z AUTO 09010KT 060V120 9999 -SHRA OVC004 13/12 Q0999
Время наблюдения: 
2020-06-04T22:50:00Z
Температура C: 
13.0
Точка росы: 
12.0
Направление ветра: 
90
Скорость ветра: 
10
Метеорологическая видимость: 
6.21
Явления погоды: 
-SHRA
Условия полета: 
LIFR

Авиационная погода в Курске

Погода METAR: 
UUOK 041700Z 25009G14MPS 9999 -SHRA BKN033CB 13/08 Q1010 R12/CLRD65 NOSIG RMK QFE739/0986
Время наблюдения: 
2020-06-04T17:00:00Z
Температура C: 
13.0
Точка росы: 
8.0
Направление ветра: 
250
Скорость ветра: 
17
Метеорологическая видимость: 
6.21
Явления погоды: 
-SHRA
Условия полета: 
VFR
Аэропорт подробнее: